sensor_id;sensor_type;location;lat;lon;timestamp;temperature;humidity
80540;DHT22;69869;48.036;15.780;2023-06-10T00:00:34;21.70;71.30
80540;DHT22;69869;48.036;15.780;2023-06-10T00:03:00;21.70;71.30
80540;DHT22;69869;48.036;15.780;2023-06-10T00:05:25;21.70;71.30
80540;DHT22;69869;48.036;15.780;2023-06-10T00:07:55;21.70;71.40
80540;DHT22;69869;48.036;15.780;2023-06-10T00:10:22;21.70;72.00
80540;DHT22;69869;48.036;15.780;2023-06-10T00:12:48;21.70;71.40
80540;DHT22;69869;48.036;15.780;2023-06-10T00:15:13;21.70;71.40
80540;DHT22;69869;48.036;15.780;2023-06-10T00:17:39;21.60;71.40
80540;DHT22;69869;48.036;15.780;2023-06-10T00:20:07;21.60;71.30
80540;DHT22;69869;48.036;15.780;2023-06-10T00:22:34;21.60;71.30
80540;DHT22;69869;48.036;15.780;2023-06-10T00:25:00;21.60;71.40
80540;DHT22;69869;48.036;15.780;2023-06-10T00:27:26;21.60;71.50
80540;DHT22;69869;48.036;15.780;2023-06-10T00:29:56;21.60;71.50
80540;DHT22;69869;48.036;15.780;2023-06-10T00:32:22;21.60;71.60
80540;DHT22;69869;48.036;15.780;2023-06-10T00:34:48;21.60;71.60
80540;DHT22;69869;48.036;15.780;2023-06-10T00:37:14;21.60;71.60
80540;DHT22;69869;48.036;15.780;2023-06-10T00:39:39;21.60;71.70
80540;DHT22;69869;48.036;15.780;2023-06-10T00:42:05;21.60;71.70
80540;DHT22;69869;48.036;15.780;2023-06-10T00:44:32;21.60;71.90
80540;DHT22;69869;48.036;15.780;2023-06-10T00:46:58;21.60;71.70
80540;DHT22;69869;48.036;15.780;2023-06-10T00:49:24;21.60;71.80
80540;DHT22;69869;48.036;15.780;2023-06-10T00:51:51;21.60;71.80
80540;DHT22;69869;48.036;15.780;2023-06-10T00:54:18;21.50;71.70
80540;DHT22;69869;48.036;15.780;2023-06-10T00:56:43;21.50;71.80
80540;DHT22;69869;48.036;15.780;2023-06-10T00:59:09;21.60;71.90
80540;DHT22;69869;48.036;15.780;2023-06-10T01:01:35;21.50;71.80
80540;DHT22;69869;48.036;15.780;2023-06-10T01:04:03;21.50;71.80
80540;DHT22;69869;48.036;15.780;2023-06-10T01:06:33;21.50;72.50
80540;DHT22;69869;48.036;15.780;2023-06-10T01:11:47;21.50;72.00
80540;DHT22;69869;48.036;15.780;2023-06-10T01:14:15;21.50;72.10
80540;DHT22;69869;48.036;15.780;2023-06-10T01:16:42;21.50;72.40
80540;DHT22;69869;48.036;15.780;2023-06-10T01:19:08;21.50;72.30
80540;DHT22;69869;48.036;15.780;2023-06-10T01:21:33;21.50;72.30
80540;DHT22;69869;48.036;15.780;2023-06-10T01:23:59;21.50;72.20
80540;DHT22;69869;48.036;15.780;2023-06-10T01:26:29;21.50;72.40
80540;DHT22;69869;48.036;15.780;2023-06-10T01:29:19;21.50;72.50
80540;DHT22;69869;48.036;15.780;2023-06-10T01:32:08;21.50;72.40
80540;DHT22;69869;48.036;15.780;2023-06-10T01:34:39;21.50;72.40
80540;DHT22;69869;48.036;15.780;2023-06-10T01:37:07;21.50;72.50
80540;DHT22;69869;48.036;15.780;2023-06-10T01:39:35;21.50;72.40
80540;DHT22;69869;48.036;15.780;2023-06-10T01:42:01;21.50;71.40
80540;DHT22;69869;48.036;15.780;2023-06-10T01:44:27;21.40;70.90
80540;DHT22;69869;48.036;15.780;2023-06-10T01:46:53;21.40;70.40
80540;DHT22;69869;48.036;15.780;2023-06-10T01:49:19;21.40;70.20
80540;DHT22;69869;48.036;15.780;2023-06-10T01:51:44;21.40;70.20
80540;DHT22;69869;48.036;15.780;2023-06-10T01:54:10;21.40;70.00
80540;DHT22;69869;48.036;15.780;2023-06-10T01:56:35;21.40;69.40
80540;DHT22;69869;48.036;15.780;2023-06-10T01:59:01;21.30;69.10
80540;DHT22;69869;48.036;15.780;2023-06-10T02:01:27;21.30;69.10
80540;DHT22;69869;48.036;15.780;2023-06-10T02:03:52;21.30;68.70
80540;DHT22;69869;48.036;15.780;2023-06-10T02:06:21;21.30;68.50
80540;DHT22;69869;48.036;15.780;2023-06-10T02:08:46;21.30;68.80
80540;DHT22;69869;48.036;15.780;2023-06-10T02:11:12;21.30;69.30
80540;DHT22;69869;48.036;15.780;2023-06-10T02:13:40;21.30;68.20
80540;DHT22;69869;48.036;15.780;2023-06-10T02:16:06;21.20;68.10
80540;DHT22;69869;48.036;15.780;2023-06-10T02:18:32;21.30;68.20
80540;DHT22;69869;48.036;15.780;2023-06-10T02:20:59;21.30;68.40
80540;DHT22;69869;48.036;15.780;2023-06-10T02:23:24;21.30;68.40
80540;DHT22;69869;48.036;15.780;2023-06-10T02:25:50;21.20;68.20
80540;DHT22;69869;48.036;15.780;2023-06-10T02:28:16;21.20;68.40
80540;DHT22;69869;48.036;15.780;2023-06-10T02:30:42;21.20;67.90
80540;DHT22;69869;48.036;15.780;2023-06-10T02:33:08;21.20;68.10
80540;DHT22;69869;48.036;15.780;2023-06-10T02:35:39;21.20;67.80
80540;DHT22;69869;48.036;15.780;2023-06-10T02:38:05;21.20;68.10
80540;DHT22;69869;48.036;15.780;2023-06-10T02:40:31;21.20;68.60
80540;DHT22;69869;48.036;15.780;2023-06-10T02:42:57;21.20;68.70
80540;DHT22;69869;48.036;15.780;2023-06-10T02:45:23;21.20;68.50
80540;DHT22;69869;48.036;15.780;2023-06-10T02:47:49;21.20;68.60
80540;DHT22;69869;48.036;15.780;2023-06-10T02:50:15;21.20;68.20
80540;DHT22;69869;48.036;15.780;2023-06-10T02:52:41;21.20;67.80
80540;DHT22;69869;48.036;15.780;2023-06-10T02:55:07;21.20;67.90
80540;DHT22;69869;48.036;15.780;2023-06-10T02:57:32;21.20;68.40
80540;DHT22;69869;48.036;15.780;2023-06-10T02:59:58;21.20;68.50
80540;DHT22;69869;48.036;15.780;2023-06-10T03:02:25;21.20;68.00
80540;DHT22;69869;48.036;15.780;2023-06-10T03:04:56;21.20;68.30
80540;DHT22;69869;48.036;15.780;2023-06-10T03:07:22;21.20;67.90
80540;DHT22;69869;48.036;15.780;2023-06-10T03:09:48;21.20;68.20
80540;DHT22;69869;48.036;15.780;2023-06-10T03:12:14;21.20;68.20
80540;DHT22;69869;48.036;15.780;2023-06-10T03:14:41;21.20;68.00
80540;DHT22;69869;48.036;15.780;2023-06-10T03:17:07;21.20;67.20
80540;DHT22;69869;48.036;15.780;2023-06-10T03:19:34;21.20;67.30
80540;DHT22;69869;48.036;15.780;2023-06-10T03:22:11;21.10;67.20
80540;DHT22;69869;48.036;15.780;2023-06-10T03:24:37;21.20;67.40
80540;DHT22;69869;48.036;15.780;2023-06-10T03:27:09;21.10;67.50
80540;DHT22;69869;48.036;15.780;2023-06-10T03:29:35;21.10;67.50
80540;DHT22;69869;48.036;15.780;2023-06-10T03:32:01;21.20;67.20
80540;DHT22;69869;48.036;15.780;2023-06-10T03:34:27;21.10;67.50
80540;DHT22;69869;48.036;15.780;2023-06-10T03:36:53;21.10;67.20
80540;DHT22;69869;48.036;15.780;2023-06-10T03:39:18;21.10;67.20
80540;DHT22;69869;48.036;15.780;2023-06-10T03:41:44;21.10;67.10
80540;DHT22;69869;48.036;15.780;2023-06-10T03:44:09;21.10;67.50
80540;DHT22;69869;48.036;15.780;2023-06-10T03:46:35;21.10;67.40
80540;DHT22;69869;48.036;15.780;2023-06-10T03:49:01;21.10;67.10
80540;DHT22;69869;48.036;15.780;2023-06-10T03:51:27;21.10;67.30
80540;DHT22;69869;48.036;15.780;2023-06-10T03:53:53;21.10;67.30
80540;DHT22;69869;48.036;15.780;2023-06-10T03:56:18;21.10;67.10
80540;DHT22;69869;48.036;15.780;2023-06-10T03:58:44;21.10;67.40
80540;DHT22;69869;48.036;15.780;2023-06-10T04:01:10;21.10;67.30
80540;DHT22;69869;48.036;15.780;2023-06-10T04:03:36;21.10;67.40
80540;DHT22;69869;48.036;15.780;2023-06-10T04:06:02;21.10;67.30
80540;DHT22;69869;48.036;15.780;2023-06-10T04:08:28;21.10;67.50
80540;DHT22;69869;48.036;15.780;2023-06-10T04:10:54;21.10;67.60
80540;DHT22;69869;48.036;15.780;2023-06-10T04:13:20;21.00;67.40
80540;DHT22;69869;48.036;15.780;2023-06-10T04:15:46;21.10;67.50
80540;DHT22;69869;48.036;15.780;2023-06-10T04:18:11;21.00;67.40
80540;DHT22;69869;48.036;15.780;2023-06-10T04:20:37;21.00;67.10
80540;DHT22;69869;48.036;15.780;2023-06-10T04:23:03;21.00;67.40
80540;DHT22;69869;48.036;15.780;2023-06-10T04:25:29;21.00;67.30
80540;DHT22;69869;48.036;15.780;2023-06-10T04:27:54;21.00;67.20
80540;DHT22;69869;48.036;15.780;2023-06-10T04:30:20;21.00;67.60
80540;DHT22;69869;48.036;15.780;2023-06-10T04:32:46;21.00;67.20
80540;DHT22;69869;48.036;15.780;2023-06-10T04:35:12;21.00;67.10
80540;DHT22;69869;48.036;15.780;2023-06-10T04:37:39;21.00;67.30
80540;DHT22;69869;48.036;15.780;2023-06-10T04:40:06;21.00;67.30
80540;DHT22;69869;48.036;15.780;2023-06-10T04:42:32;21.10;67.80
80540;DHT22;69869;48.036;15.780;2023-06-10T04:44:57;21.00;67.70
80540;DHT22;69869;48.036;15.780;2023-06-10T04:47:23;21.00;67.30
80540;DHT22;69869;48.036;15.780;2023-06-10T04:49:49;21.00;67.00
80540;DHT22;69869;48.036;15.780;2023-06-10T04:52:14;21.10;67.30
80540;DHT22;69869;48.036;15.780;2023-06-10T04:54:40;21.00;66.60
80540;DHT22;69869;48.036;15.780;2023-06-10T04:57:06;21.00;67.20
80540;DHT22;69869;48.036;15.780;2023-06-10T04:59:33;21.00;67.20
80540;DHT22;69869;48.036;15.780;2023-06-10T05:02:03;21.00;67.30
80540;DHT22;69869;48.036;15.780;2023-06-10T05:04:28;21.00;67.20
80540;DHT22;69869;48.036;15.780;2023-06-10T05:06:55;21.00;67.20
80540;DHT22;69869;48.036;15.780;2023-06-10T05:09:20;21.00;67.10
80540;DHT22;69869;48.036;15.780;2023-06-10T05:11:46;21.00;67.10
80540;DHT22;69869;48.036;15.780;2023-06-10T05:14:12;21.00;67.20
80540;DHT22;69869;48.036;15.780;2023-06-10T05:16:38;21.00;67.10
80540;DHT22;69869;48.036;15.780;2023-06-10T05:19:04;21.00;68.10
80540;DHT22;69869;48.036;15.780;2023-06-10T05:21:30;21.00;67.30
80540;DHT22;69869;48.036;15.780;2023-06-10T05:23:55;21.00;67.40
80540;DHT22;69869;48.036;15.780;2023-06-10T05:26:21;21.00;67.20
80540;DHT22;69869;48.036;15.780;2023-06-10T05:28:47;20.90;67.20
80540;DHT22;69869;48.036;15.780;2023-06-10T05:31:13;21.00;67.20
80540;DHT22;69869;48.036;15.780;2023-06-10T05:33:39;21.00;67.70
80540;DHT22;69869;48.036;15.780;2023-06-10T05:36:05;21.00;67.20
80540;DHT22;69869;48.036;15.780;2023-06-10T05:38:31;21.00;67.00
80540;DHT22;69869;48.036;15.780;2023-06-10T05:40:56;21.00;67.30
80540;DHT22;69869;48.036;15.780;2023-06-10T05:43:24;20.90;67.00
80540;DHT22;69869;48.036;15.780;2023-06-10T05:45:50;20.90;67.00
80540;DHT22;69869;48.036;15.780;2023-06-10T05:48:15;20.90;67.20
80540;DHT22;69869;48.036;15.780;2023-06-10T05:50:41;20.90;66.90
80540;DHT22;69869;48.036;15.780;2023-06-10T05:53:10;20.90;67.10
80540;DHT22;69869;48.036;15.780;2023-06-10T05:55:44;20.90;67.00
80540;DHT22;69869;48.036;15.780;2023-06-10T05:58:10;20.90;67.10
80540;DHT22;69869;48.036;15.780;2023-06-10T06:00:38;20.90;67.10
80540;DHT22;69869;48.036;15.780;2023-06-10T06:03:05;20.90;67.40
80540;DHT22;69869;48.036;15.780;2023-06-10T06:05:31;20.90;67.30
80540;DHT22;69869;48.036;15.780;2023-06-10T06:08:04;20.90;67.40
80540;DHT22;69869;48.036;15.780;2023-06-10T06:10:30;21.00;67.60
80540;DHT22;69869;48.036;15.780;2023-06-10T06:12:55;20.90;67.60
80540;DHT22;69869;48.036;15.780;2023-06-10T06:15:21;20.90;67.30
80540;DHT22;69869;48.036;15.780;2023-06-10T06:17:47;20.90;67.40
80540;DHT22;69869;48.036;15.780;2023-06-10T06:20:12;20.90;67.60
80540;DHT22;69869;48.036;15.780;2023-06-10T06:22:38;20.90;67.40
80540;DHT22;69869;48.036;15.780;2023-06-10T06:25:04;20.90;67.40
80540;DHT22;69869;48.036;15.780;2023-06-10T06:27:31;20.90;67.70
80540;DHT22;69869;48.036;15.780;2023-06-10T06:29:56;20.90;67.80
80540;DHT22;69869;48.036;15.780;2023-06-10T06:32:22;20.90;68.50
80540;DHT22;69869;48.036;15.780;2023-06-10T06:34:50;20.90;68.60
80540;DHT22;69869;48.036;15.780;2023-06-10T06:37:23;20.90;68.40
80540;DHT22;69869;48.036;15.780;2023-06-10T06:39:52;20.90;68.40
80540;DHT22;69869;48.036;15.780;2023-06-10T06:42:18;20.90;68.70
80540;DHT22;69869;48.036;15.780;2023-06-10T06:44:46;21.00;68.50
80540;DHT22;69869;48.036;15.780;2023-06-10T06:47:12;20.90;68.80
80540;DHT22;69869;48.036;15.780;2023-06-10T06:49:37;20.90;68.90
80540;DHT22;69869;48.036;15.780;2023-06-10T06:52:03;20.90;68.90
80540;DHT22;69869;48.036;15.780;2023-06-10T06:54:29;21.00;68.90
80540;DHT22;69869;48.036;15.780;2023-06-10T06:56:55;20.90;68.80
80540;DHT22;69869;48.036;15.780;2023-06-10T06:59:20;20.90;68.90
80540;DHT22;69869;48.036;15.780;2023-06-10T07:01:46;20.90;68.90
80540;DHT22;69869;48.036;15.780;2023-06-10T07:04:14;21.00;68.90
80540;DHT22;69869;48.036;15.780;2023-06-10T07:06:40;20.90;69.00
80540;DHT22;69869;48.036;15.780;2023-06-10T07:09:06;20.90;68.90
80540;DHT22;69869;48.036;15.780;2023-06-10T07:11:32;20.90;68.90
80540;DHT22;69869;48.036;15.780;2023-06-10T07:13:58;20.90;69.00
80540;DHT22;69869;48.036;15.780;2023-06-10T07:16:24;20.90;69.00
80540;DHT22;69869;48.036;15.780;2023-06-10T07:18:49;20.90;69.30
80540;DHT22;69869;48.036;15.780;2023-06-10T07:21:15;20.90;69.30
80540;DHT22;69869;48.036;15.780;2023-06-10T07:23:44;20.90;69.30
80540;DHT22;69869;48.036;15.780;2023-06-10T07:26:10;21.00;69.60
80540;DHT22;69869;48.036;15.780;2023-06-10T07:28:41;21.00;69.40
80540;DHT22;69869;48.036;15.780;2023-06-10T07:31:08;20.90;69.80
80540;DHT22;69869;48.036;15.780;2023-06-10T07:33:33;20.90;70.40
80540;DHT22;69869;48.036;15.780;2023-06-10T07:35:59;20.70;71.00
80540;DHT22;69869;48.036;15.780;2023-06-10T07:38:25;20.60;71.30
80540;DHT22;69869;48.036;15.780;2023-06-10T07:40:51;20.60;71.50
80540;DHT22;69869;48.036;15.780;2023-06-10T07:43:17;20.50;71.90
80540;DHT22;69869;48.036;15.780;2023-06-10T07:45:43;20.50;72.50
80540;DHT22;69869;48.036;15.780;2023-06-10T07:48:09;20.50;71.80
80540;DHT22;69869;48.036;15.780;2023-06-10T07:50:34;20.50;71.70
80540;DHT22;69869;48.036;15.780;2023-06-10T07:53:00;20.50;71.70
80540;DHT22;69869;48.036;15.780;2023-06-10T07:55:26;20.50;71.80
80540;DHT22;69869;48.036;15.780;2023-06-10T07:57:53;20.50;71.80
80540;DHT22;69869;48.036;15.780;2023-06-10T08:00:19;20.40;72.10
80540;DHT22;69869;48.036;15.780;2023-06-10T08:02:44;20.40;72.10
80540;DHT22;69869;48.036;15.780;2023-06-10T08:05:10;20.40;72.10
80540;DHT22;69869;48.036;15.780;2023-06-10T08:07:36;20.40;72.30
80540;DHT22;69869;48.036;15.780;2023-06-10T08:10:02;20.40;72.30
80540;DHT22;69869;48.036;15.780;2023-06-10T08:12:29;20.40;72.70
80540;DHT22;69869;48.036;15.780;2023-06-10T08:14:55;20.40;72.70
80540;DHT22;69869;48.036;15.780;2023-06-10T08:17:21;20.40;72.90
80540;DHT22;69869;48.036;15.780;2023-06-10T08:19:46;20.30;72.80
80540;DHT22;69869;48.036;15.780;2023-06-10T08:22:12;20.30;73.00
80540;DHT22;69869;48.036;15.780;2023-06-10T08:24:38;20.40;73.20
80540;DHT22;69869;48.036;15.780;2023-06-10T08:27:04;20.30;73.50
80540;DHT22;69869;48.036;15.780;2023-06-10T08:29:31;20.30;73.80
80540;DHT22;69869;48.036;15.780;2023-06-10T08:31:57;20.20;73.90
80540;DHT22;69869;48.036;15.780;2023-06-10T08:34:23;20.30;73.90
80540;DHT22;69869;48.036;15.780;2023-06-10T08:36:49;20.30;74.00
80540;DHT22;69869;48.036;15.780;2023-06-10T08:39:18;20.30;74.40
80540;DHT22;69869;48.036;15.780;2023-06-10T08:44:46;20.30;74.30
80540;DHT22;69869;48.036;15.780;2023-06-10T08:47:14;20.20;74.60
80540;DHT22;69869;48.036;15.780;2023-06-10T08:49:45;20.20;74.90
80540;DHT22;69869;48.036;15.780;2023-06-10T08:52:20;20.20;75.70
80540;DHT22;69869;48.036;15.780;2023-06-10T08:54:59;20.30;75.00
80540;DHT22;69869;48.036;15.780;2023-06-10T08:57:26;20.20;75.30
80540;DHT22;69869;48.036;15.780;2023-06-10T08:59:55;20.20;75.10
80540;DHT22;69869;48.036;15.780;2023-06-10T09:02:21;20.30;74.80
80540;DHT22;69869;48.036;15.780;2023-06-10T09:04:47;20.40;74.40
80540;DHT22;69869;48.036;15.780;2023-06-10T09:07:15;20.50;74.20
80540;DHT22;69869;48.036;15.780;2023-06-10T09:09:43;20.50;74.50
80540;DHT22;69869;48.036;15.780;2023-06-10T09:12:10;20.50;75.60
80540;DHT22;69869;48.036;15.780;2023-06-10T09:14:36;20.50;74.50
80540;DHT22;69869;48.036;15.780;2023-06-10T09:17:03;20.50;74.00
80540;DHT22;69869;48.036;15.780;2023-06-10T09:19:29;20.60;74.10
80540;DHT22;69869;48.036;15.780;2023-06-10T09:21:54;20.60;73.90
80540;DHT22;69869;48.036;15.780;2023-06-10T09:24:23;20.60;75.20
80540;DHT22;69869;48.036;15.780;2023-06-10T09:26:49;20.60;75.20
80540;DHT22;69869;48.036;15.780;2023-06-10T09:29:16;20.60;75.80
80540;DHT22;69869;48.036;15.780;2023-06-10T09:31:43;20.70;76.30
80540;DHT22;69869;48.036;15.780;2023-06-10T09:34:11;20.60;76.00
80540;DHT22;69869;48.036;15.780;2023-06-10T09:36:38;20.60;74.60
80540;DHT22;69869;48.036;15.780;2023-06-10T09:39:04;20.60;75.40
80540;DHT22;69869;48.036;15.780;2023-06-10T09:41:34;20.60;75.20
80540;DHT22;69869;48.036;15.780;2023-06-10T09:44:00;20.60;75.50
80540;DHT22;69869;48.036;15.780;2023-06-10T09:46:31;20.60;76.00
80540;DHT22;69869;48.036;15.780;2023-06-10T09:48:58;20.60;76.20
80540;DHT22;69869;48.036;15.780;2023-06-10T09:51:25;20.60;76.00
80540;DHT22;69869;48.036;15.780;2023-06-10T09:53:51;20.60;76.10
80540;DHT22;69869;48.036;15.780;2023-06-10T09:56:17;20.60;76.10
80540;DHT22;69869;48.036;15.780;2023-06-10T09:58:45;20.60;76.80
80540;DHT22;69869;48.036;15.780;2023-06-10T10:01:12;20.70;75.60
80540;DHT22;69869;48.036;15.780;2023-06-10T10:03:46;20.70;75.20
80540;DHT22;69869;48.036;15.780;2023-06-10T10:06:13;20.70;76.50
80540;DHT22;69869;48.036;15.780;2023-06-10T10:08:39;20.70;75.40
80540;DHT22;69869;48.036;15.780;2023-06-10T10:11:05;20.70;75.40
80540;DHT22;69869;48.036;15.780;2023-06-10T10:13:34;20.70;75.50
80540;DHT22;69869;48.036;15.780;2023-06-10T10:16:04;20.70;76.40
80540;DHT22;69869;48.036;15.780;2023-06-10T10:18:31;20.80;76.30
80540;DHT22;69869;48.036;15.780;2023-06-10T10:21:00;20.80;75.90
80540;DHT22;69869;48.036;15.780;2023-06-10T10:23:39;20.80;75.60
